»·PEaware :: UAL1399 KSNA-KSBA

UAL1399 :: KSNA-KSBA

FLIGHT INFORMATION

Flight Status: Arrived
Operator:
United Airlines
More flights by this operator :: More flights under this callsign
Pilot: David C. (16084)
Aircraft: SAAB 340
(SF34)
More flights by this aircraft type
Origin: KSNA John Wayne-Orange Co
United States
Destination: KSBA Santa Barbara Mun
United States
More flights between these airports :: More routes between these airports
Route: +CHANL3 SXC V208 VTU VTU282 KWANG
File this flight plan on PilotEdge
Remarks:
Altitude:
(Current/Filed)
6,000ft
Speed:
(Current/Filed)
262kts
Departed: 22-Jun-18 10:59 AM
Arrived: 22-Jun-18 11:45 AM
Distance/Time
Traveled:
108nm/0:46
Distance/Time
To Go:
Arrived

Flight Plot

Page will automatically refresh every two minutes.

Flight plan parsing failed; only flown route is shown


Map Options




Map Legend


Flown Route
Filed Route
Departure Airport
Arrival Airport
Navaid (VOR, NDB)
Fix

Horizontal Profiles

Position Reports

Time Latitude Longitude Heading Altitude Ground
Speed
22-Jun-18 10:10 33.679344 -117.862415 206 61ft 0kts
22-Jun-18 10:11 33.679344 -117.862415 206 61ft 0kts
22-Jun-18 10:12 33.679344 -117.862415 206 61ft 0kts
22-Jun-18 10:13 33.679344 -117.862415 206 61ft 0kts
22-Jun-18 10:14 33.679344 -117.862415 206 61ft 0kts
22-Jun-18 10:15 33.679344 -117.862415 206 61ft 0kts
22-Jun-18 10:16 33.679344 -117.862415 206 61ft 0kts
22-Jun-18 10:17 33.679344 -117.862415 206 61ft 0kts
22-Jun-18 10:18 33.679344 -117.862415 206 61ft 0kts
22-Jun-18 10:19 33.679344 -117.862415 206 61ft 0kts
22-Jun-18 10:20 33.679344 -117.862415 206 61ft 0kts
22-Jun-18 10:21 33.679344 -117.862415 206 61ft 0kts
22-Jun-18 10:22 33.679344 -117.862415 206 61ft 0kts
22-Jun-18 10:23 33.679344 -117.862415 206 61ft 0kts
22-Jun-18 10:24 33.679344 -117.862415 206 61ft 0kts
22-Jun-18 10:25 33.679344 -117.862415 206 61ft 0kts
22-Jun-18 10:26 33.679344 -117.862415 206 61ft 0kts
22-Jun-18 10:27 33.679344 -117.862415 206 61ft 0kts
22-Jun-18 10:28 33.679344 -117.862415 206 61ft 0kts
22-Jun-18 10:29 33.679344 -117.862415 206 61ft 0kts
22-Jun-18 10:30 33.679344 -117.862415 206 61ft 0kts
22-Jun-18 10:31 33.679344 -117.862415 206 61ft 0kts
22-Jun-18 10:32 33.679344 -117.862415 206 61ft 0kts
22-Jun-18 10:33 33.679344 -117.862415 206 61ft 0kts
22-Jun-18 10:34 33.679344 -117.862415 206 61ft 0kts
22-Jun-18 10:35 33.679344 -117.862415 206 61ft 0kts
22-Jun-18 10:36 33.679344 -117.862415 206 61ft 0kts
22-Jun-18 10:37 33.679344 -117.862415 206 61ft 0kts
22-Jun-18 10:38 33.679344 -117.862415 206 61ft 0kts
22-Jun-18 10:39 33.679344 -117.862415 206 61ft 0kts
22-Jun-18 10:40 33.679344 -117.862415 206 61ft 0kts
22-Jun-18 10:41 33.679344 -117.862415 206 61ft 0kts
22-Jun-18 10:42 33.679344 -117.862415 206 61ft 0kts
22-Jun-18 10:43 33.679344 -117.862415 206 61ft 0kts
22-Jun-18 10:44 33.679344 -117.862415 206 61ft 0kts
22-Jun-18 10:45 33.679344 -117.862415 206 61ft 0kts
22-Jun-18 10:46 33.679344 -117.862415 206 61ft 0kts
22-Jun-18 10:47 33.679344 -117.862415 206 61ft 0kts
22-Jun-18 10:48 33.679344 -117.862415 206 61ft 0kts
22-Jun-18 10:49 33.679344 -117.862415 206 61ft 0kts
22-Jun-18 10:50 33.679344 -117.862415 206 61ft 0kts
22-Jun-18 10:51 33.679344 -117.862415 206 61ft 0kts
22-Jun-18 10:52 33.679344 -117.862415 206 61ft 0kts
22-Jun-18 10:53 33.679344 -117.862415 206 61ft 0kts
22-Jun-18 10:54 33.679344 -117.862415 206 61ft 0kts
22-Jun-18 10:55 33.679576 -117.863086 322 61ft 13kts
22-Jun-18 10:56 33.680430 -117.864677 297 61ft 0kts
22-Jun-18 10:57 33.680441 -117.864703 297 61ft 0kts
22-Jun-18 10:58 33.680441 -117.864703 297 61ft 0kts
22-Jun-18 10:59 33.679628 -117.866333 207 61ft 44kts
22-Jun-18 11:00 33.647594 -117.880757 188 1005ft 170kts
22-Jun-18 11:01 33.597680 -117.889490 189 2894ft 188kts
22-Jun-18 11:02 33.555609 -117.919895 214 4638ft 192kts
22-Jun-18 11:03 33.510747 -117.955668 215 6321ft 197kts
22-Jun-18 11:04 33.466338 -117.994079 245 7784ft 199kts
22-Jun-18 11:05 33.444169 -118.062069 250 8007ft 240kts
22-Jun-18 11:06 33.419398 -118.138548 250 8002ft 253kts
22-Jun-18 11:07 33.393882 -118.217335 250 8000ft 257kts
22-Jun-18 11:08 33.369513 -118.297291 261 7998ft 256kts
22-Jun-18 11:09 33.370994 -118.381482 278 8000ft 254kts
22-Jun-18 11:10 33.400644 -118.454659 308 8007ft 252kts
22-Jun-18 11:11 33.444562 -118.518758 310 7999ft 247kts
22-Jun-18 11:12 33.488235 -118.581184 310 7998ft 245kts
22-Jun-18 11:13 33.531802 -118.643418 310 7998ft 244kts
22-Jun-18 11:14 33.573985 -118.703759 310 7999ft 244kts
22-Jun-18 11:15 33.617377 -118.765919 309 8000ft 244kts
22-Jun-18 11:16 33.660573 -118.827914 309 8003ft 243kts
22-Jun-18 11:17 33.703779 -118.890051 309 8006ft 243kts
22-Jun-18 11:18 33.746958 -118.952257 309 8008ft 243kts
22-Jun-18 11:19 33.792109 -119.011748 339 7980ft 245kts
22-Jun-18 11:20 33.859050 -119.022384 353 8008ft 245kts
22-Jun-18 11:21 33.926725 -119.029796 353 8008ft 246kts
22-Jun-18 11:22 33.994246 -119.036909 353 8008ft 246kts
22-Jun-18 11:23 34.062066 -119.044029 353 8007ft 246kts
22-Jun-18 11:24 34.120914 -119.070029 302 7650ft 242kts
22-Jun-18 11:25 34.152243 -119.139023 298 6251ft 234kts
22-Jun-18 11:26 34.180169 -119.205029 297 6003ft 243kts
22-Jun-18 11:27 34.210881 -119.278399 297 6000ft 249kts
22-Jun-18 11:28 34.242033 -119.352946 297 6000ft 250kts
22-Jun-18 11:29 34.273069 -119.427523 297 6000ft 251kts
22-Jun-18 11:30 34.304259 -119.502585 297 6002ft 252kts
22-Jun-18 11:31 34.332782 -119.580099 293 6006ft 254kts
22-Jun-18 11:32 34.344133 -119.662023 271 6023ft 251kts
22-Jun-18 11:33 34.347433 -119.745677 271 6009ft 248kts
22-Jun-18 11:34 34.350655 -119.828617 271 6008ft 246kts
22-Jun-18 11:35 34.353888 -119.911151 271 6008ft 245kts
22-Jun-18 11:36 34.357146 -119.993668 271 6008ft 245kts
22-Jun-18 11:37 34.360313 -120.075968 271 6003ft 245kts
22-Jun-18 11:38 34.379296 -120.149439 336 5816ft 241kts
22-Jun-18 11:39 34.429777 -120.117727 91 4271ft 229kts
22-Jun-18 11:40 34.423783 -120.049045 91 3684ft 187kts
22-Jun-18 11:41 34.424641 -119.988754 89 2440ft 166kts
22-Jun-18 11:42 34.425662 -119.942030 90 2003ft 123kts
22-Jun-18 11:43 34.426360 -119.906380 90 931ft 126kts
22-Jun-18 11:44 34.427324 -119.862732 90 178ft 127kts
22-Jun-18 11:45 34.427830 -119.839122 90 18ft 12kts
22-Jun-18 11:46 34.427010 -119.838365 165 18ft 0kts
22-Jun-18 11:47 34.424940 -119.837225 140 18ft 3kts
22-Jun-18 11:48 34.424830 -119.837071 118 18ft 0kts

Navigation Log

Ident Type
Flight plan parsing failed, navigation log unavailable